Makinen, Minnesota
Current Conditions -  °F | °C
As of 8:31 AM on Tuesday 21 Oct 2014 (Local Time) from KEVM Reporting Station
Overcast Overcast  
Wind Chill: 34°   Ceiling: 1600
Heat Index: 39°   Visibility: 10mi
Dew Point: 34°   Wind: 7mph
Humidity: 81%   Direction: 100°E
Pressure: 30.22"   Gusts: NA
Location:  47.36°N, 92.37°W
Report Text: KEVM 211331Z AUTO 10006KT 10SM OVC016 04/01 A3022 RMK AO2
Loading
Personal Weather Stations






























Interactive Weather Map
Tropical Storm Tracking
New forecast layout! Learn more

10-Day Weather Forecast

Advertisements
Track Severe Weather on mobile